createdAt,value
2022-08-18T00:00:07.467Z,7.00
2022-08-18T00:02:43.611Z,9.77
2022-08-18T00:05:28.405Z,8.43
2022-08-18T00:07:58.837Z,11.13
2022-08-18T00:10:27.492Z,12.20
2022-08-18T00:12:57.082Z,9.50
2022-08-18T00:15:31.029Z,9.23
2022-08-18T00:17:58.764Z,11.73
2022-08-18T00:20:27.353Z,8.97
2022-08-18T00:22:56.534Z,11.20
2022-08-18T00:25:25.440Z,8.00
2022-08-18T00:27:53.131Z,10.17
2022-08-18T00:30:22.939Z,10.60
2022-08-18T00:32:54.911Z,11.83
2022-08-18T00:35:29.040Z,10.03
2022-08-18T00:37:58.869Z,11.03
2022-08-18T00:40:34.491Z,9.33
2022-08-18T00:43:07.757Z,8.53
2022-08-18T00:45:38.594Z,6.57
2022-08-18T00:48:09.819Z,6.40
2022-08-18T00:50:42.590Z,7.20
2022-08-18T00:53:13.507Z,7.63
2022-08-18T00:55:43.751Z,7.60
2022-08-18T00:58:34.388Z,13.33
2022-08-18T01:01:06.866Z,8.40
2022-08-18T01:03:39.942Z,8.10
2022-08-18T01:06:15.085Z,13.93
2022-08-18T01:08:42.848Z,13.80
2022-08-18T01:11:11.823Z,9.90
2022-08-18T01:13:42.616Z,10.57
2022-08-18T01:16:28.636Z,9.13
2022-08-18T01:19:15.386Z,9.53
2022-08-18T01:21:53.584Z,10.00
2022-08-18T01:24:46.527Z,10.23
2022-08-18T01:27:18.198Z,9.67
2022-08-18T01:29:46.375Z,7.90
2022-08-18T01:32:19.856Z,10.00
2022-08-18T01:34:48.474Z,14.23
2022-08-18T01:37:19.092Z,8.40
2022-08-18T01:41:22.317Z,11.00
2022-08-18T01:42:37.129Z,13.93
2022-08-18T01:45:07.968Z,24.23
2022-08-18T01:47:47.909Z,13.30
2022-08-18T01:50:17.270Z,13.83
2022-08-18T01:52:45.405Z,13.53
2022-08-18T01:55:14.845Z,9.83
2022-08-18T01:57:45.504Z,9.90
2022-08-18T02:00:15.984Z,9.63
2022-08-18T02:02:44.291Z,13.57
2022-08-18T02:05:18.271Z,12.60
2022-08-18T02:07:46.772Z,11.80
2022-08-18T02:10:18.001Z,14.03
2022-08-18T02:12:46.111Z,16.27
2022-08-18T02:15:14.086Z,7.37
2022-08-18T02:17:45.383Z,8.27
2022-08-18T02:20:17.301Z,12.27
2022-08-18T02:22:46.216Z,6.10
2022-08-18T02:25:16.417Z,6.47
2022-08-18T02:27:44.325Z,7.57
2022-08-18T02:30:15.322Z,8.30
2022-08-18T02:32:43.552Z,11.20
2022-08-18T02:35:12.646Z,18.00
2022-08-18T02:37:50.383Z,6.53
2022-08-18T02:40:20.422Z,8.40
2022-08-18T02:42:48.679Z,7.37
2022-08-18T02:45:16.626Z,12.20
2022-08-18T02:47:45.188Z,9.10
2022-08-18T02:50:14.463Z,8.70
2022-08-18T02:52:42.526Z,7.70
2022-08-18T02:55:11.706Z,7.43
2022-08-18T02:57:45.367Z,12.27
2022-08-18T03:00:16.029Z,10.13
2022-08-18T03:02:48.345Z,10.10
2022-08-18T03:05:16.906Z,13.60
2022-08-18T03:07:45.654Z,11.97
2022-08-18T03:10:31.397Z,11.23
2022-08-18T03:15:46.429Z,9.43
2022-08-18T03:18:14.997Z,10.57
2022-08-18T03:20:44.129Z,7.00
2022-08-18T03:23:12.941Z,6.60
2022-08-18T03:25:46.578Z,9.50
2022-08-18T03:28:17.342Z,6.17
2022-08-18T03:30:45.283Z,11.80
2022-08-18T03:33:13.529Z,11.90
2022-08-18T03:35:42.042Z,7.80
2022-08-18T03:38:10.320Z,7.90
2022-08-18T03:40:38.205Z,8.40
2022-08-18T03:43:50.158Z,14.93
2022-08-18T03:45:56.829Z,7.13
2022-08-18T03:48:25.682Z,9.93
2022-08-18T03:50:53.570Z,8.57
2022-08-18T03:53:21.748Z,6.73
2022-08-18T03:55:49.669Z,6.87
2022-08-18T03:58:17.964Z,8.23
2022-08-18T04:00:45.819Z,5.77
2022-08-18T04:03:15.438Z,6.23
2022-08-18T04:05:43.338Z,7.60
2022-08-18T04:08:11.388Z,15.40
2022-08-18T04:10:39.240Z,6.37
2022-08-18T04:13:07.528Z,5.37
2022-08-18T04:15:35.381Z,9.73
2022-08-18T04:18:04.749Z,8.63
2022-08-18T04:20:34.145Z,6.20
2022-08-18T04:23:02.548Z,9.17
2022-08-18T04:25:33.390Z,7.20
2022-08-18T04:28:03.850Z,8.00
2022-08-18T04:30:32.096Z,9.27
2022-08-18T04:33:02.743Z,12.03
2022-08-18T04:35:33.667Z,8.50
2022-08-18T04:38:01.940Z,7.07
2022-08-18T04:40:33.608Z,10.53
2022-08-18T04:43:02.400Z,8.80
2022-08-18T04:45:30.267Z,6.00
2022-08-18T04:47:58.192Z,8.50
2022-08-18T04:50:26.353Z,9.23
2022-08-18T04:53:13.519Z,7.97
2022-08-18T04:55:48.361Z,9.33
2022-08-18T04:58:19.085Z,6.73
2022-08-18T05:00:47.537Z,6.67
2022-08-18T05:03:15.941Z,13.03
2022-08-18T05:05:43.791Z,7.13
2022-08-18T05:08:13.389Z,9.80
2022-08-18T05:10:41.485Z,7.20
2022-08-18T05:13:10.196Z,11.90
2022-08-18T05:16:07.142Z,7.40
2022-08-18T05:18:28.545Z,8.07
2022-08-18T05:20:57.503Z,9.00
2022-08-18T05:23:30.684Z,8.90
2022-08-18T05:26:00.774Z,14.77
2022-08-18T05:28:29.576Z,6.53
2022-08-18T05:31:00.522Z,16.40
2022-08-18T05:33:29.058Z,8.97
2022-08-18T05:36:04.927Z,13.50
2022-08-18T05:38:43.525Z,8.77
2022-08-18T05:41:22.796Z,10.70
2022-08-18T05:43:52.556Z,8.33
2022-08-18T05:46:25.808Z,6.83
2022-08-18T05:48:54.176Z,10.37
2022-08-18T05:51:30.457Z,13.63
2022-08-18T05:54:29.792Z,8.53
2022-08-18T05:57:02.847Z,10.73
2022-08-18T05:59:34.303Z,21.87
2022-08-18T06:02:07.800Z,9.10
2022-08-18T06:04:44.601Z,8.10
2022-08-18T06:07:16.835Z,8.47
2022-08-18T06:09:49.628Z,7.27
2022-08-18T06:12:41.140Z,16.30
2022-08-18T06:15:16.996Z,14.17
2022-08-18T06:18:02.480Z,12.90
2022-08-18T06:20:37.117Z,15.10
2022-08-18T06:23:21.777Z,14.70
2022-08-18T06:26:05.573Z,13.70
2022-08-18T06:28:54.154Z,15.03
2022-08-18T06:31:29.673Z,13.10
2022-08-18T06:34:08.213Z,12.43
2022-08-18T06:36:45.067Z,20.83
2022-08-18T06:39:22.186Z,15.00
2022-08-18T06:41:53.752Z,15.40
2022-08-18T06:44:36.530Z,13.77
2022-08-18T06:47:11.276Z,10.30
2022-08-18T06:49:46.950Z,15.50
2022-08-18T06:52:21.193Z,14.23
2022-08-18T06:54:51.545Z,12.67
2022-08-18T06:57:30.376Z,14.33
2022-08-18T07:00:03.886Z,15.83
2022-08-18T07:02:54.446Z,9.70
2022-08-18T07:05:26.601Z,17.03
2022-08-18T07:08:12.724Z,16.00
2022-08-18T07:10:44.026Z,12.30
2022-08-18T07:13:30.440Z,13.37
2022-08-18T07:16:26.417Z,10.60
2022-08-18T07:19:08.978Z,18.30
2022-08-18T07:21:39.003Z,13.30
2022-08-18T07:24:24.152Z,12.93
2022-08-18T07:27:01.837Z,10.53
2022-08-18T07:29:34.434Z,9.93
2022-08-18T07:32:12.538Z,10.90
2022-08-18T07:34:55.473Z,13.17
2022-08-18T07:37:29.322Z,14.07
2022-08-18T07:40:02.865Z,12.00
2022-08-18T07:43:00.566Z,11.13
2022-08-18T07:45:34.538Z,12.90
2022-08-18T07:48:27.361Z,13.57
2022-08-18T07:51:08.797Z,19.47
2022-08-18T07:53:54.796Z,14.80
2022-08-18T07:56:38.108Z,12.50
2022-08-18T07:59:14.110Z,9.67
2022-08-18T08:01:51.733Z,13.30
2022-08-18T08:04:32.063Z,10.30
2022-08-18T08:07:25.649Z,20.53
2022-08-18T08:10:13.488Z,15.23
2022-08-18T08:12:49.996Z,11.87
2022-08-18T08:15:28.388Z,12.30
2022-08-18T08:18:09.220Z,10.47
2022-08-18T08:20:44.894Z,11.93
2022-08-18T08:23:27.472Z,12.23
2022-08-18T08:26:25.429Z,10.80
2022-08-18T08:29:04.271Z,11.93
2022-08-18T08:31:44.560Z,13.37
2022-08-18T08:34:18.006Z,12.40
2022-08-18T08:36:48.347Z,14.67
2022-08-18T08:39:22.535Z,12.93
2022-08-18T08:41:57.856Z,16.00
2022-08-18T08:44:58.918Z,14.40
2022-08-18T08:47:33.493Z,10.00
2022-08-18T08:50:08.279Z,14.33
2022-08-18T08:52:41.534Z,17.20
2022-08-18T08:55:16.431Z,15.80
2022-08-18T08:57:51.829Z,10.67
2022-08-18T09:00:20.172Z,15.97
2022-08-18T09:03:03.712Z,12.00
2022-08-18T09:05:41.460Z,12.97
2022-08-18T09:08:26.358Z,11.70
2022-08-18T09:11:11.769Z,11.60
2022-08-18T09:14:17.974Z,8.97
2022-08-18T09:16:59.461Z,10.80
2022-08-18T09:19:47.030Z,9.87
2022-08-18T09:22:30.246Z,10.87
2022-08-18T09:24:58.761Z,11.57
2022-08-18T09:28:09.330Z,10.40
2022-08-18T09:30:47.748Z,12.70
2022-08-18T09:33:35.102Z,13.50
2022-08-18T09:36:31.840Z,13.07
2022-08-18T09:39:27.706Z,12.07
2022-08-18T09:41:59.660Z,8.87
2022-08-18T09:48:32.596Z,9.30
2022-08-18T09:51:34.934Z,11.47
2022-08-18T09:54:14.638Z,6.30
2022-08-18T09:57:24.412Z,6.73
2022-08-18T10:00:28.833Z,10.23
2022-08-18T10:03:15.614Z,5.33
2022-08-18T10:06:12.403Z,11.10
2022-08-18T10:12:27.318Z,7.90
2022-08-18T10:15:33.265Z,6.73
2022-08-18T10:18:25.991Z,9.40
2022-08-18T10:21:05.237Z,11.90
2022-08-18T10:24:14.536Z,6.33
2022-08-18T10:27:10.352Z,7.57
2022-08-18T10:29:53.026Z,6.50
2022-08-18T10:32:52.282Z,5.63
2022-08-18T10:36:07.109Z,9.80
2022-08-18T10:38:45.942Z,9.57
2022-08-18T10:41:32.232Z,8.53
2022-08-18T10:44:10.584Z,6.77
2022-08-18T10:46:54.290Z,8.20
2022-08-18T10:49:26.724Z,5.37
2022-08-18T10:52:16.397Z,7.50
2022-08-18T10:55:06.930Z,3.77
2022-08-18T10:58:10.814Z,14.10
2022-08-18T11:00:52.825Z,5.73
2022-08-18T11:03:52.293Z,8.27
2022-08-18T11:06:26.494Z,6.77
2022-08-18T11:08:57.867Z,5.70
2022-08-18T11:11:34.200Z,7.30
2022-08-18T11:14:24.400Z,8.43
2022-08-18T11:17:04.132Z,9.60
2022-08-18T11:22:31.472Z,5.23
2022-08-18T11:25:01.237Z,5.00
2022-08-18T11:27:36.196Z,5.00
2022-08-18T11:30:07.030Z,5.63
2022-08-18T11:32:42.520Z,6.10
2022-08-18T11:35:25.167Z,7.80
2022-08-18T11:37:59.851Z,6.50
2022-08-18T11:41:10.847Z,9.90
2022-08-18T11:43:29.722Z,5.10
2022-08-18T11:46:16.439Z,7.03
2022-08-18T11:48:51.803Z,6.60
2022-08-18T11:51:25.212Z,8.23
2022-08-18T11:53:59.566Z,9.00
2022-08-18T11:56:31.491Z,7.37
2022-08-18T11:59:02.765Z,7.43
2022-08-18T12:01:48.695Z,6.27
2022-08-18T12:04:25.792Z,11.83
2022-08-18T12:07:04.422Z,8.60
2022-08-18T12:12:30.715Z,8.50
2022-08-18T12:15:09.130Z,6.90
2022-08-18T12:17:52.282Z,10.53
2022-08-18T12:20:22.694Z,7.17
2022-08-18T12:22:56.441Z,8.83
2022-08-18T12:25:25.929Z,6.70
2022-08-18T12:27:54.129Z,9.90
2022-08-18T12:30:22.078Z,10.27
2022-08-18T12:35:41.843Z,7.33
2022-08-18T12:38:13.958Z,6.90
2022-08-18T12:40:43.976Z,11.30
2022-08-18T12:43:12.505Z,7.40
2022-08-18T12:45:41.911Z,6.50
2022-08-18T12:48:10.533Z,6.03
2022-08-18T12:50:54.485Z,6.80
2022-08-18T12:53:29.964Z,7.13
2022-08-18T12:56:22.704Z,7.00
2022-08-18T12:58:53.595Z,5.70
2022-08-18T13:01:23.318Z,9.83
2022-08-18T13:04:11.187Z,8.77
2022-08-18T13:06:54.178Z,8.93
2022-08-18T13:09:35.028Z,6.67
2022-08-18T13:12:19.191Z,9.60
2022-08-18T13:14:48.701Z,13.23
2022-08-18T13:17:29.475Z,8.70
2022-08-18T13:20:02.862Z,7.60
2022-08-18T13:22:32.661Z,8.83
2022-08-18T13:25:04.010Z,8.30
2022-08-18T13:27:35.705Z,13.00
2022-08-18T13:30:30.387Z,8.53
2022-08-18T13:32:58.889Z,8.13
2022-08-18T13:35:38.419Z,7.67
2022-08-18T13:38:17.457Z,10.27
2022-08-18T13:40:49.475Z,9.50
2022-08-18T13:43:20.761Z,8.47
2022-08-18T13:45:53.409Z,10.90
2022-08-18T13:48:24.541Z,10.10
2022-08-18T13:50:56.037Z,8.80
2022-08-18T13:53:26.359Z,11.00
2022-08-18T13:55:59.229Z,11.63
2022-08-18T13:58:28.735Z,8.80
2022-08-18T14:01:22.832Z,16.70
2022-08-18T14:03:48.516Z,11.03
2022-08-18T14:06:22.678Z,10.20
2022-08-18T14:08:52.659Z,13.20
2022-08-18T14:11:27.357Z,10.50
2022-08-18T14:13:56.631Z,9.90
2022-08-18T14:16:26.728Z,16.60
2022-08-18T14:19:12.807Z,17.20
2022-08-18T14:22:02.569Z,13.00
2022-08-18T14:24:48.977Z,12.17
2022-08-18T14:27:19.729Z,17.73
2022-08-18T14:29:50.381Z,11.57
2022-08-18T14:32:29.483Z,16.43
2022-08-18T14:35:00.347Z,9.53
2022-08-18T14:37:29.608Z,11.17
2022-08-18T14:39:58.575Z,11.30
2022-08-18T14:42:33.104Z,13.07
2022-08-18T14:45:17.865Z,13.43
2022-08-18T14:47:56.602Z,12.00
2022-08-18T14:50:26.391Z,11.77
2022-08-18T14:52:54.421Z,11.33
2022-08-18T14:55:23.744Z,8.33
2022-08-18T14:57:53.826Z,9.77
2022-08-18T15:00:23.006Z,11.10
2022-08-18T15:02:52.204Z,7.90
2022-08-18T15:05:24.337Z,13.57
2022-08-18T15:07:53.967Z,8.37
2022-08-18T15:10:23.677Z,8.60
2022-08-18T15:12:59.756Z,13.10
2022-08-18T15:15:50.773Z,12.77
2022-08-18T15:18:22.353Z,11.00
2022-08-18T15:21:10.429Z,7.77
2022-08-18T15:24:04.724Z,9.13
2022-08-18T15:26:43.912Z,10.40
2022-08-18T15:29:14.998Z,9.87
2022-08-18T15:31:50.834Z,13.50
2022-08-18T15:34:20.781Z,10.17
2022-08-18T15:36:49.470Z,8.90
2022-08-18T15:39:17.629Z,10.90
2022-08-18T15:44:24.660Z,13.57
2022-08-18T15:46:53.612Z,12.70
2022-08-18T15:49:23.956Z,11.63
2022-08-18T15:51:52.624Z,10.83
2022-08-18T15:54:20.908Z,10.30
2022-08-18T15:56:58.252Z,10.73
2022-08-18T15:59:34.158Z,10.53
2022-08-18T16:02:11.628Z,11.23
2022-08-18T16:04:41.287Z,12.47
2022-08-18T16:07:11.467Z,15.60
2022-08-18T16:09:39.390Z,11.47
2022-08-18T16:12:10.439Z,13.50
2022-08-18T16:14:40.957Z,13.93
2022-08-18T16:17:17.974Z,15.53
2022-08-18T16:19:52.283Z,13.30
2022-08-18T16:22:21.689Z,10.97
2022-08-18T16:24:55.005Z,10.53
2022-08-18T16:27:23.177Z,13.90
2022-08-18T16:29:52.387Z,16.50
2022-08-18T16:32:20.368Z,18.77
2022-08-18T16:34:48.245Z,12.83
2022-08-18T16:39:49.425Z,11.43
2022-08-18T16:42:18.597Z,11.70
2022-08-18T16:44:46.764Z,11.20
2022-08-18T16:47:18.643Z,14.90
2022-08-18T16:49:48.635Z,12.80
2022-08-18T16:52:18.080Z,13.20
2022-08-18T16:54:46.703Z,11.00
2022-08-18T16:57:53.405Z,16.30
2022-08-18T17:00:42.289Z,13.93
2022-08-18T17:03:30.420Z,12.70
2022-08-18T17:06:03.090Z,10.20
2022-08-18T17:08:34.250Z,14.10
2022-08-18T17:11:03.031Z,16.30
2022-08-18T17:13:31.414Z,16.80
2022-08-18T17:15:59.599Z,13.90
2022-08-18T17:18:29.983Z,18.80
2022-08-18T17:20:57.898Z,19.43
2022-08-18T17:23:27.542Z,12.20
2022-08-18T17:25:56.911Z,13.50
2022-08-18T17:28:46.758Z,17.63
2022-08-18T17:31:20.692Z,14.33
2022-08-18T17:33:50.548Z,17.23
2022-08-18T17:36:26.608Z,17.43
2022-08-18T17:39:00.364Z,14.77
2022-08-18T17:41:29.296Z,14.67
2022-08-18T17:44:00.940Z,16.17
2022-08-18T17:46:38.223Z,14.93
2022-08-18T17:49:13.876Z,18.27
2022-08-18T17:51:45.833Z,14.80
2022-08-18T17:54:27.908Z,17.13
2022-08-18T17:57:01.530Z,19.80
2022-08-18T17:59:46.016Z,19.60
2022-08-18T18:02:28.557Z,14.57
2022-08-18T18:05:01.657Z,17.50
2022-08-18T18:07:33.194Z,17.80
2022-08-18T18:10:05.135Z,15.13
2022-08-18T18:12:36.247Z,15.13
2022-08-18T18:15:07.784Z,15.57
2022-08-18T18:17:38.839Z,14.90
2022-08-18T18:20:25.148Z,15.63
2022-08-18T18:22:53.341Z,15.30
2022-08-18T18:25:34.422Z,17.50
2022-08-18T18:28:03.783Z,14.87
2022-08-18T18:30:32.802Z,17.03
2022-08-18T18:33:04.756Z,17.03
2022-08-18T18:35:54.643Z,18.50
2022-08-18T18:38:28.946Z,16.10
2022-08-18T18:41:00.596Z,14.73
2022-08-18T18:43:36.793Z,16.50
2022-08-18T18:46:29.131Z,18.33
2022-08-18T18:49:07.550Z,15.80
2022-08-18T18:51:42.632Z,15.50
2022-08-18T18:54:22.357Z,16.30
2022-08-18T18:56:54.347Z,20.53
2022-08-18T18:59:38.602Z,14.67
2022-08-18T19:02:33.736Z,17.43
2022-08-18T19:05:13.519Z,17.67
2022-08-18T19:07:54.360Z,16.50
2022-08-18T19:10:27.377Z,20.87
2022-08-18T19:12:59.385Z,18.40
2022-08-18T19:15:28.646Z,18.33
2022-08-18T19:18:01.617Z,20.93
2022-08-18T19:20:33.456Z,20.47
2022-08-18T19:23:07.534Z,18.40
2022-08-18T19:25:39.254Z,17.53
2022-08-18T19:28:13.788Z,18.00
2022-08-18T19:30:47.334Z,20.47
2022-08-18T19:33:25.789Z,22.60
2022-08-18T19:35:59.363Z,23.70
2022-08-18T19:38:34.758Z,20.10
2022-08-18T19:41:19.934Z,24.23
2022-08-18T19:43:54.631Z,22.93
2022-08-18T19:46:37.101Z,20.60
2022-08-18T19:49:11.294Z,26.60
2022-08-18T19:51:42.482Z,26.33
2022-08-18T19:54:33.727Z,22.67
2022-08-18T19:57:24.203Z,31.20
2022-08-18T20:00:14.868Z,29.63
2022-08-18T20:03:09.916Z,23.77
2022-08-18T20:05:47.415Z,28.70
2022-08-18T20:08:50.489Z,25.83
2022-08-18T20:11:42.020Z,24.83
2022-08-18T20:14:13.161Z,24.00
2022-08-18T20:16:45.099Z,29.27
2022-08-18T20:19:42.136Z,27.87
2022-08-18T20:22:16.071Z,25.20
2022-08-18T20:24:51.434Z,23.03
2022-08-18T20:27:37.161Z,24.83
2022-08-18T20:30:33.957Z,25.70
2022-08-18T20:33:19.049Z,27.27
2022-08-18T20:36:11.480Z,26.77
2022-08-18T20:38:42.811Z,28.23
2022-08-18T20:41:38.072Z,38.07
2022-08-18T20:44:36.450Z,29.63
2022-08-18T20:47:19.125Z,32.60
2022-08-18T20:50:02.971Z,55.30
2022-08-18T20:52:41.279Z,42.17
2022-08-18T20:55:18.186Z,36.90
2022-08-18T20:57:47.183Z,34.30
2022-08-18T21:00:23.921Z,36.80
2022-08-18T21:02:58.398Z,37.30
2022-08-18T21:05:30.135Z,39.57
2022-08-18T21:08:03.087Z,40.70
2022-08-18T21:10:33.514Z,41.00
2022-08-18T21:13:04.801Z,43.83
2022-08-18T21:15:38.442Z,42.80
2022-08-18T21:18:08.696Z,44.93
2022-08-18T21:20:37.006Z,47.27
2022-08-18T21:23:09.998Z,38.07
2022-08-18T21:25:50.456Z,47.73
2022-08-18T21:28:21.944Z,49.00
2022-08-18T21:31:41.746Z,56.87
2022-08-18T21:33:51.429Z,68.40
2022-08-18T21:36:23.326Z,65.53
2022-08-18T21:39:05.232Z,63.00
2022-08-18T21:41:40.581Z,68.23
2022-08-18T21:44:14.977Z,74.33
2022-08-18T21:46:46.632Z,65.00
2022-08-18T21:49:24.936Z,58.93
2022-08-18T21:51:53.051Z,66.72
2022-08-18T21:54:24.109Z,64.63
2022-08-18T21:57:20.452Z,74.47
2022-08-18T22:00:17.318Z,70.43
2022-08-18T22:02:52.057Z,76.30
2022-08-18T22:05:29.750Z,70.50
2022-08-18T22:08:20.548Z,71.23
2022-08-18T22:12:00.038Z,72.87
2022-08-18T22:14:35.938Z,65.90
2022-08-18T22:17:31.291Z,66.97
2022-08-18T22:20:32.407Z,65.80
2022-08-18T22:23:24.037Z,55.20
2022-08-18T22:25:52.493Z,56.53
2022-08-18T22:28:27.528Z,54.87
2022-08-18T22:30:55.947Z,53.80
2022-08-18T22:33:23.879Z,53.53
2022-08-18T22:35:55.308Z,60.77
2022-08-18T22:38:28.182Z,60.10
2022-08-18T22:40:56.869Z,62.30
2022-08-18T22:43:24.803Z,57.63
2022-08-18T22:45:52.727Z,59.10
2022-08-18T22:48:20.997Z,59.27
2022-08-18T22:50:48.890Z,59.80
2022-08-18T22:53:19.276Z,60.10
2022-08-18T22:55:49.353Z,61.10
2022-08-18T22:58:28.253Z,50.33
2022-08-18T23:01:05.326Z,66.43
2022-08-18T23:03:41.641Z,66.93
2022-08-18T23:06:11.709Z,57.00
2022-08-18T23:08:54.914Z,65.87
2022-08-18T23:11:26.049Z,65.97
2022-08-18T23:13:54.415Z,73.90
2022-08-18T23:16:31.387Z,67.43
2022-08-18T23:19:02.074Z,75.13
2022-08-18T23:21:33.729Z,73.67
2022-08-18T23:24:04.792Z,77.60
2022-08-18T23:26:35.068Z,81.57
2022-08-18T23:29:03.740Z,71.37
2022-08-18T23:31:31.796Z,72.37
2022-08-18T23:34:01.017Z,66.10
2022-08-18T23:36:30.148Z,75.13
2022-08-18T23:38:59.326Z,70.83
2022-08-18T23:41:27.742Z,75.47
2022-08-18T23:43:58.055Z,74.07
2022-08-18T23:46:31.997Z,65.43
2022-08-18T23:49:02.921Z,63.60
2022-08-18T23:51:34.293Z,56.70
2022-08-18T23:54:06.989Z,67.37
2022-08-18T23:56:36.187Z,72.40
2022-08-18T23:59:07.893Z,73.60
